Impacts METAR Board INFO
IDs:

KFLL - Ft Lauderdale-Hollyw, FL, US

Updated at: 1257 UTC 16 Dec 2017
Potential Impact None Slight Moderate High
Time16/00Z 16/01Z 16/02Z 16/03Z 16/04Z 16/05Z 16/06Z 16/07Z 16/08Z 16/09Z 16/10Z 16/11Z 16/12Z
VIS10 10 10 10 10 10 10 10 10 10 10 10 10
CIG-- -- -- -- -- -- -- -- -- -- -- -- --
CoverSCTSCTSCTSCTCLRCLRCLRCLRCLRCLRCLRCLRSCT
FltCatVFRVFRVFRVFRVFRVFRVFRVFRVFRVFRVFRVFRVFR
WX--------------------------
WDir0000031032034000330330350
WSpd0 0 0 0 0 4 4 4 0 0 3 5 4
WGst-- -- -- -- -- -- -- -- -- -- -- -- --
Raw hourly METARs
KFLL 152353Z 00000KT 10SM SCT250 21/14 A3011 RMK AO2 SLP196 T02110139 10250 20211 53018
KFLL 160053Z 00000KT 10SM SCT250 21/14 A3013 RMK AO2 SLP202 T02110139
KFLL 160153Z 00000KT 10SM SCT250 20/15 A3014 RMK AO2 SLP207 T02000150
KFLL 160253Z 00000KT 10SM SCT250 19/14 A3015 RMK AO2 SLP210 T01940144 51015
KFLL 160353Z 00000KT 10SM CLR 19/15 A3017 RMK AO2 SLP214 T01940150
KFLL 160453Z 31004KT 10SM CLR 18/15 A3017 RMK AO2 SLP215 T01780150 402500117
KFLL 160553Z 32004KT 10SM CLR 18/14 A3017 RMK AO2 SLP217 T01780139 10217 20172 51006
KFLL 160653Z 34004KT 10SM CLR 17/14 A3016 RMK AO2 SLP212 T01670144
KFLL 160753Z 00000KT 10SM CLR 17/14 A3016 RMK AO2 SLP211 T01670144
KFLL 160853Z 00000KT 10SM CLR 16/14 A3015 RMK AO2 SLP208 T01610144 56009
KFLL 160953Z 33003KT 10SM CLR 16/15 A3014 RMK AO2 SLP206 T01610150
KFLL 161053Z 33005KT 10SM CLR 15/15 A3016 RMK AO2 SLP212 T01500150
KFLL 161153Z 35004KT 10SM FEW025 SCT250 15/15 A3017 RMK AO2 SLP217 T01500150 10178 20150 53009